Details From LFSB - Basle-mulhouse
To HEGN - Hurghada Intl
Flight Number -
Tags Standard Generated
Created
Modified
Stats Distance 1,737 nm / 3,217 km
Max Altitude 38,900 ft / 11,857 m
Waypoints 15
Social Downloads 5
Likes 0
Share

Download

Looking for another format? Having issues loading an existing format? Contact us
Advertisement - Login to hide

Notes

Departing runway 15 LFSB. Arriving runway 16 HEGN.

Route

LFSB +47.52_+007.58 +47.48_+007.64 +45.87_+010.80 +44.17_+013.79 +42.40_+016.60 +40.57_+019.25 +38.68_+021.77 +36.74_+024.15 +34.76_+026.41 +32.73_+028.56 +30.67_+030.62 +27.31_+033.74 +27.27_+033.77 HEGN

ID Type Via Altitude (ft/m) Position (lat/lon) Dist (leg/tot) Name
O LFSB APT - 0 / 0 47.58595 / 7.53196 - / 0 nm
+47.52_+007.58 LATLON - 120 / 37 47.52042 / 7.57746 4 / 4 nm
+47.48_+007.64 LATLON - 390 / 119 47.47956 / 7.63816 3 / 7 nm
+45.87_+010.80 LATLON - 38,900 / 11,857 45.86637 / 10.80325 162 / 170 nm
+44.17_+013.79 LATLON - 38,900 / 11,857 44.17218 / 13.78579 162 / 332 nm
+42.40_+016.60 LATLON - 38,900 / 11,857 42.40480 / 16.59828 162 / 495 nm
+40.57_+019.25 LATLON - 38,900 / 11,857 40.57248 / 19.25390 162 / 657 nm
+38.68_+021.77 LATLON - 38,900 / 11,857 38.68263 / 21.76579 162 / 819 nm
+36.74_+024.15 LATLON - 38,900 / 11,857 36.74185 / 24.14672 162 / 982 nm
+34.76_+026.41 LATLON - 38,900 / 11,857 34.75599 / 26.40886 162 / 1144 nm
+32.73_+028.56 LATLON - 38,900 / 11,857 32.73028 / 28.56370 162 / 1307 nm
+30.67_+030.62 LATLON - 38,900 / 11,857 30.66936 / 30.62194 162 / 1469 nm
+27.31_+033.74 LATLON - 390 / 119 27.31334 / 33.73648 259 / 1729 nm
+27.27_+033.77 LATLON - 120 / 37 27.26575 / 33.77358 3 / 1732 nm
O HEGN APT - 0 / 0 27.19576 / 33.79425 4 / 1736 nm

Altitude Profile

Advertisement - Login to hide

Weather


0- 5 10 15 20 25 30 35+ Temperature / °C

Clouds and Precipitation
Forecast for 2021-09-24 00:00 UTC. Updated 2 hours ago

Ground ~20,000 ft ~40,000 ft Winds

LFSB

Details ICAO LFSB (BSL)
Name EuroAirport Basel-Mulhouse-Freiburg
Region France
Timezone Europe/Paris (UTC+2.0)
Stats Elevation 884 ft / 269 m (AMSL)
Location 47.595800° 7.524810°
Runways 2
Magnetic Variation 2.550° E

METAR

LFSB 232330Z AUTO 17004KT CAVOK 10/09 Q1021 NOSIG

Decode

TAF

TAF LFSB 232300Z 2400/2424 16005KT CAVOK PROB40 TEMPO 2402/2406 3000 MIFG

Decode

Departure Runways

ID Width Length Bearing (true/mag) Surface Threshold Overrun Markings Lighting
08 197 ft / 60 m 5,977 ft / 1,822 m 76.98° / 74.43° CONCRETE 0 ft / 0 m 0 ft / 0 m APP CENTERLINE EDGE THRESHOLD
15 197 ft / 60 m 12,807 ft / 3,904 m 154.84° / 152.29° CONCRETE 0 ft / 0 m 302 ft / 92 m PREC-APP CENTERLINE EDGE THRESHOLD CALVERT-ILS REIL-OMNI
26 197 ft / 60 m 5,977 ft / 1,822 m 257.00° / 254.45° CONCRETE 728 ft / 222 m 0 ft / 0 m APP CENTERLINE EDGE THRESHOLD
33 197 ft / 60 m 12,807 ft / 3,904 m 334.86° / 332.31° CONCRETE 3,674 ft / 1,120 m 0 ft / 0 m PREC-APP CENTERLINE EDGE THRESHOLD REIL-OMNI

HEGN

Details ICAO HEGN (HRG)
Name Hurghada Intl
Region Egypt
Timezone Africa/Cairo (UTC+2.0)
Stats Elevation 109 ft / 33 m (AMSL)
Location 27.177500° 33.796300°
Runways 2
Magnetic Variation 4.510° E

METAR

HEGN 232300Z 27010KT CAVOK 30/10 Q1009 NOSIG

Decode

TAF

TAF HEGN 232300Z 2400/2506 29014KT CAVOK= TAF HESH 232300Z 2400/2506 35013KT CAVOK

Decode

Destination Runways

ID Width Length Bearing (true/mag) Surface Threshold Overrun Markings Lighting
16L 148 ft / 45 m 13,171 ft / 4,015 m 165.30° / 160.79° ASPHALT 991 ft / 302 m 0 ft / 0 m PREC-APP CENTERLINE EDGE THRESHOLD ALSF-I
16R 197 ft / 60 m 13,168 ft / 4,014 m 165.26° / 160.75° ASPHALT 0 ft / 0 m 394 ft / 120 m PREC-APP CENTERLINE EDGE THRESHOLD ALSF-I
34L 197 ft / 60 m 13,168 ft / 4,014 m 345.26° / 340.75° ASPHALT 0 ft / 0 m 394 ft / 120 m PREC-APP CENTERLINE EDGE THRESHOLD ALSF-I
34R 148 ft / 45 m 13,171 ft / 4,015 m 345.30° / 340.79° ASPHALT 0 ft / 0 m 200 ft / 61 m PREC-APP CENTERLINE EDGE THRESHOLD ALSF-I

Approach Navaids

Runway Type Ident Frequency Range Bearing (true/mag) Slope Elevation
34R DME HIL 110.30 MHz 18 nm / 33 km - - 30 ft / 9 m (AMSL)
34R GS HIL 110.30 MHz 10 nm / 19 km 345.28° / 340.77 ° 3.00° 52 ft / 16 m (AMSL)
34R LOC-ILS HIL 110.30 MHz 18 nm / 33 km 345.28° / 340.77 ° - 52 ft / 16 m (AMSL)

Popular Alternatives